sensor_id;sensor_type;location;lat;lon;timestamp;temperature;humidity
3921;DHT22;1975;49.356;6.816;2023-04-08T00:00:18;9.20;99.90
3921;DHT22;1975;49.356;6.816;2023-04-08T00:02:43;9.20;99.90
3921;DHT22;1975;49.356;6.816;2023-04-08T00:05:09;9.20;99.90
3921;DHT22;1975;49.356;6.816;2023-04-08T00:07:34;9.20;99.90
3921;DHT22;1975;49.356;6.816;2023-04-08T00:10:00;9.10;99.90
3921;DHT22;1975;49.356;6.816;2023-04-08T00:12:25;9.20;99.90
3921;DHT22;1975;49.356;6.816;2023-04-08T00:14:51;9.10;99.90
3921;DHT22;1975;49.356;6.816;2023-04-08T00:17:16;9.10;99.90
3921;DHT22;1975;49.356;6.816;2023-04-08T00:19:42;9.10;99.90
3921;DHT22;1975;49.356;6.816;2023-04-08T00:22:07;9.10;99.90
3921;DHT22;1975;49.356;6.816;2023-04-08T00:24:33;9.10;99.90
3921;DHT22;1975;49.356;6.816;2023-04-08T00:26:58;9.10;99.90
3921;DHT22;1975;49.356;6.816;2023-04-08T00:29:24;9.10;99.90
3921;DHT22;1975;49.356;6.816;2023-04-08T00:31:49;9.10;99.90
3921;DHT22;1975;49.356;6.816;2023-04-08T00:34:15;9.10;99.90
3921;DHT22;1975;49.356;6.816;2023-04-08T00:36:41;9.10;99.90
3921;DHT22;1975;49.356;6.816;2023-04-08T00:39:07;9.10;99.90
3921;DHT22;1975;49.356;6.816;2023-04-08T00:41:33;9.10;99.90
3921;DHT22;1975;49.356;6.816;2023-04-08T00:43:58;9.10;99.90
3921;DHT22;1975;49.356;6.816;2023-04-08T00:46:24;9.10;99.90
3921;DHT22;1975;49.356;6.816;2023-04-08T00:48:50;9.10;99.90
3921;DHT22;1975;49.356;6.816;2023-04-08T00:51:16;9.00;99.90
3921;DHT22;1975;49.356;6.816;2023-04-08T00:53:42;9.00;99.90
3921;DHT22;1975;49.356;6.816;2023-04-08T00:56:08;9.10;99.90
3921;DHT22;1975;49.356;6.816;2023-04-08T00:58:34;9.00;99.90
3921;DHT22;1975;49.356;6.816;2023-04-08T01:01:02;9.00;99.90
3921;DHT22;1975;49.356;6.816;2023-04-08T01:08:44;9.00;99.90
3921;DHT22;1975;49.356;6.816;2023-04-08T01:11:11;9.00;99.90
3921;DHT22;1975;49.356;6.816;2023-04-08T01:13:39;9.00;99.90
3921;DHT22;1975;49.356;6.816;2023-04-08T01:16:05;9.00;99.90
3921;DHT22;1975;49.356;6.816;2023-04-08T01:18:31;9.00;99.90
3921;DHT22;1975;49.356;6.816;2023-04-08T01:20:57;9.00;99.90
3921;DHT22;1975;49.356;6.816;2023-04-08T01:26:09;8.90;99.90
3921;DHT22;1975;49.356;6.816;2023-04-08T01:28:34;8.90;99.90
3921;DHT22;1975;49.356;6.816;2023-04-08T01:31:01;9.00;99.90
3921;DHT22;1975;49.356;6.816;2023-04-08T01:33:27;8.90;99.90
3921;DHT22;1975;49.356;6.816;2023-04-08T01:35:54;8.90;99.90
3921;DHT22;1975;49.356;6.816;2023-04-08T01:38:21;8.90;99.90
3921;DHT22;1975;49.356;6.816;2023-04-08T01:40:47;8.90;99.90
3921;DHT22;1975;49.356;6.816;2023-04-08T01:43:13;8.90;99.90
3921;DHT22;1975;49.356;6.816;2023-04-08T01:45:41;8.90;99.90
3921;DHT22;1975;49.356;6.816;2023-04-08T01:48:08;8.90;99.90
3921;DHT22;1975;49.356;6.816;2023-04-08T01:50:33;8.90;99.90
3921;DHT22;1975;49.356;6.816;2023-04-08T01:52:59;8.90;99.90
3921;DHT22;1975;49.356;6.816;2023-04-08T01:55:25;8.90;99.90
3921;DHT22;1975;49.356;6.816;2023-04-08T01:57:51;8.90;99.90
3921;DHT22;1975;49.356;6.816;2023-04-08T02:00:24;8.90;99.90
3921;DHT22;1975;49.356;6.816;2023-04-08T02:02:50;8.90;99.90
3921;DHT22;1975;49.356;6.816;2023-04-08T02:05:16;8.90;99.90
3921;DHT22;1975;49.356;6.816;2023-04-08T02:07:42;8.90;99.90
3921;DHT22;1975;49.356;6.816;2023-04-08T02:10:09;8.90;99.90
3921;DHT22;1975;49.356;6.816;2023-04-08T02:12:35;8.90;99.90
3921;DHT22;1975;49.356;6.816;2023-04-08T02:15:02;8.80;99.90
3921;DHT22;1975;49.356;6.816;2023-04-08T02:17:44;8.80;99.90
3921;DHT22;1975;49.356;6.816;2023-04-08T02:20:18;8.80;99.90
3921;DHT22;1975;49.356;6.816;2023-04-08T02:22:47;8.80;99.90
3921;DHT22;1975;49.356;6.816;2023-04-08T02:25:14;8.80;99.90
3921;DHT22;1975;49.356;6.816;2023-04-08T02:27:39;8.80;99.90
3921;DHT22;1975;49.356;6.816;2023-04-08T02:30:09;8.80;99.90
3921;DHT22;1975;49.356;6.816;2023-04-08T02:32:35;8.80;99.90
3921;DHT22;1975;49.356;6.816;2023-04-08T02:35:01;8.80;99.90
3921;DHT22;1975;49.356;6.816;2023-04-08T02:37:28;8.80;99.90
3921;DHT22;1975;49.356;6.816;2023-04-08T02:39:53;8.80;99.90
3921;DHT22;1975;49.356;6.816;2023-04-08T02:42:19;8.80;99.90
3921;DHT22;1975;49.356;6.816;2023-04-08T02:44:44;8.80;99.90
3921;DHT22;1975;49.356;6.816;2023-04-08T02:47:10;8.80;99.90
3921;DHT22;1975;49.356;6.816;2023-04-08T02:49:35;8.80;99.90
3921;DHT22;1975;49.356;6.816;2023-04-08T02:52:01;8.80;99.90
3921;DHT22;1975;49.356;6.816;2023-04-08T02:54:26;8.80;99.90
3921;DHT22;1975;49.356;6.816;2023-04-08T02:56:52;8.80;99.90
3921;DHT22;1975;49.356;6.816;2023-04-08T02:59:17;8.70;99.90
3921;DHT22;1975;49.356;6.816;2023-04-08T03:01:43;8.80;99.90
3921;DHT22;1975;49.356;6.816;2023-04-08T03:04:08;8.80;99.90
3921;DHT22;1975;49.356;6.816;2023-04-08T03:06:34;8.70;99.90
3921;DHT22;1975;49.356;6.816;2023-04-08T03:08:59;8.70;99.90
3921;DHT22;1975;49.356;6.816;2023-04-08T03:11:25;8.70;99.90
3921;DHT22;1975;49.356;6.816;2023-04-08T03:13:50;8.70;99.90
3921;DHT22;1975;49.356;6.816;2023-04-08T03:16:16;8.70;99.90
3921;DHT22;1975;49.356;6.816;2023-04-08T03:18:41;8.70;99.90
3921;DHT22;1975;49.356;6.816;2023-04-08T03:21:07;8.70;99.90
3921;DHT22;1975;49.356;6.816;2023-04-08T03:23:32;8.70;99.90
3921;DHT22;1975;49.356;6.816;2023-04-08T03:25:58;8.70;99.90
3921;DHT22;1975;49.356;6.816;2023-04-08T03:28:23;8.70;99.90
3921;DHT22;1975;49.356;6.816;2023-04-08T03:30:49;8.70;99.90
3921;DHT22;1975;49.356;6.816;2023-04-08T03:33:14;8.70;99.90
3921;DHT22;1975;49.356;6.816;2023-04-08T03:35:40;8.70;99.90
3921;DHT22;1975;49.356;6.816;2023-04-08T03:38:05;8.70;99.90
3921;DHT22;1975;49.356;6.816;2023-04-08T03:40:31;8.70;99.90
3921;DHT22;1975;49.356;6.816;2023-04-08T03:42:56;8.70;99.90
3921;DHT22;1975;49.356;6.816;2023-04-08T03:45:22;8.70;99.90
3921;DHT22;1975;49.356;6.816;2023-04-08T03:47:47;8.70;99.90
3921;DHT22;1975;49.356;6.816;2023-04-08T03:50:12;8.70;99.90
3921;DHT22;1975;49.356;6.816;2023-04-08T03:52:38;8.70;99.90
3921;DHT22;1975;49.356;6.816;2023-04-08T03:55:03;8.70;99.90
3921;DHT22;1975;49.356;6.816;2023-04-08T03:57:29;8.70;99.90
3921;DHT22;1975;49.356;6.816;2023-04-08T03:59:54;8.70;99.90
3921;DHT22;1975;49.356;6.816;2023-04-08T04:02:20;8.70;99.90
3921;DHT22;1975;49.356;6.816;2023-04-08T04:04:45;8.70;99.90
3921;DHT22;1975;49.356;6.816;2023-04-08T04:07:11;8.70;99.90
3921;DHT22;1975;49.356;6.816;2023-04-08T04:09:36;8.70;99.90
3921;DHT22;1975;49.356;6.816;2023-04-08T04:12:02;8.60;99.90
3921;DHT22;1975;49.356;6.816;2023-04-08T04:14:27;8.70;99.90
3921;DHT22;1975;49.356;6.816;2023-04-08T04:16:52;8.60;99.90
3921;DHT22;1975;49.356;6.816;2023-04-08T04:19:18;8.60;99.90
3921;DHT22;1975;49.356;6.816;2023-04-08T04:21:43;8.60;99.90
3921;DHT22;1975;49.356;6.816;2023-04-08T04:24:09;8.60;99.90
3921;DHT22;1975;49.356;6.816;2023-04-08T04:26:34;8.60;99.90
3921;DHT22;1975;49.356;6.816;2023-04-08T04:29:00;8.60;99.90
3921;DHT22;1975;49.356;6.816;2023-04-08T04:31:25;8.60;99.90
3921;DHT22;1975;49.356;6.816;2023-04-08T04:33:51;8.60;99.90
3921;DHT22;1975;49.356;6.816;2023-04-08T04:36:16;8.60;99.90
3921;DHT22;1975;49.356;6.816;2023-04-08T04:38:42;8.60;99.90
3921;DHT22;1975;49.356;6.816;2023-04-08T04:41:07;8.60;99.90
3921;DHT22;1975;49.356;6.816;2023-04-08T04:43:33;8.60;99.90
3921;DHT22;1975;49.356;6.816;2023-04-08T04:45:58;8.60;99.90
3921;DHT22;1975;49.356;6.816;2023-04-08T04:48:24;8.60;99.90
3921;DHT22;1975;49.356;6.816;2023-04-08T04:50:55;8.60;99.90
3921;DHT22;1975;49.356;6.816;2023-04-08T04:53:21;8.60;99.90
3921;DHT22;1975;49.356;6.816;2023-04-08T04:55:46;8.60;99.90
3921;DHT22;1975;49.356;6.816;2023-04-08T04:58:12;8.60;99.90
3921;DHT22;1975;49.356;6.816;2023-04-08T05:00:37;8.60;99.90
3921;DHT22;1975;49.356;6.816;2023-04-08T05:03:03;8.60;99.90
3921;DHT22;1975;49.356;6.816;2023-04-08T05:05:28;8.60;99.90
3921;DHT22;1975;49.356;6.816;2023-04-08T05:07:54;8.60;99.90
3921;DHT22;1975;49.356;6.816;2023-04-08T05:10:19;8.60;99.90
3921;DHT22;1975;49.356;6.816;2023-04-08T05:12:45;8.60;99.90
3921;DHT22;1975;49.356;6.816;2023-04-08T05:15:10;8.60;99.90
3921;DHT22;1975;49.356;6.816;2023-04-08T05:17:36;8.60;99.90
3921;DHT22;1975;49.356;6.816;2023-04-08T05:20:01;8.60;99.90
3921;DHT22;1975;49.356;6.816;2023-04-08T05:22:27;8.60;99.90
3921;DHT22;1975;49.356;6.816;2023-04-08T05:24:52;8.60;99.90
3921;DHT22;1975;49.356;6.816;2023-04-08T05:27:18;8.60;99.90
3921;DHT22;1975;49.356;6.816;2023-04-08T05:29:43;8.60;99.90
3921;DHT22;1975;49.356;6.816;2023-04-08T05:32:09;8.60;99.90
3921;DHT22;1975;49.356;6.816;2023-04-08T05:34:34;8.60;99.90
3921;DHT22;1975;49.356;6.816;2023-04-08T05:36:59;8.60;99.90
3921;DHT22;1975;49.356;6.816;2023-04-08T05:39:25;8.60;99.90
3921;DHT22;1975;49.356;6.816;2023-04-08T05:41:50;8.60;99.90
3921;DHT22;1975;49.356;6.816;2023-04-08T05:44:16;8.60;99.90
3921;DHT22;1975;49.356;6.816;2023-04-08T05:46:41;8.50;99.90
3921;DHT22;1975;49.356;6.816;2023-04-08T05:49:07;8.60;99.90
3921;DHT22;1975;49.356;6.816;2023-04-08T05:51:32;8.60;99.90
3921;DHT22;1975;49.356;6.816;2023-04-08T05:53:58;8.50;99.90
3921;DHT22;1975;49.356;6.816;2023-04-08T05:56:23;8.60;99.90
3921;DHT22;1975;49.356;6.816;2023-04-08T05:58:49;8.50;99.90
3921;DHT22;1975;49.356;6.816;2023-04-08T06:01:14;8.50;99.90
3921;DHT22;1975;49.356;6.816;2023-04-08T06:03:40;8.50;99.90
3921;DHT22;1975;49.356;6.816;2023-04-08T06:06:09;8.50;99.90
3921;DHT22;1975;49.356;6.816;2023-04-08T06:08:35;8.50;99.90
3921;DHT22;1975;49.356;6.816;2023-04-08T06:11:01;8.50;99.90
3921;DHT22;1975;49.356;6.816;2023-04-08T06:13:28;8.50;99.90
3921;DHT22;1975;49.356;6.816;2023-04-08T06:15:53;8.50;99.90
3921;DHT22;1975;49.356;6.816;2023-04-08T06:18:19;8.50;99.90
3921;DHT22;1975;49.356;6.816;2023-04-08T06:20:45;8.50;99.90
3921;DHT22;1975;49.356;6.816;2023-04-08T06:23:10;8.50;99.90
3921;DHT22;1975;49.356;6.816;2023-04-08T06:25:36;8.50;99.90
3921;DHT22;1975;49.356;6.816;2023-04-08T06:28:02;8.50;99.90
3921;DHT22;1975;49.356;6.816;2023-04-08T06:30:27;8.50;99.90
3921;DHT22;1975;49.356;6.816;2023-04-08T06:32:53;8.60;99.90
3921;DHT22;1975;49.356;6.816;2023-04-08T06:35:18;8.60;99.90
3921;DHT22;1975;49.356;6.816;2023-04-08T06:37:44;8.60;99.90
3921;DHT22;1975;49.356;6.816;2023-04-08T06:40:09;8.60;99.90
3921;DHT22;1975;49.356;6.816;2023-04-08T06:42:35;8.50;99.90
3921;DHT22;1975;49.356;6.816;2023-04-08T06:45:05;8.60;99.90
3921;DHT22;1975;49.356;6.816;2023-04-08T06:47:31;8.50;99.90
3921;DHT22;1975;49.356;6.816;2023-04-08T06:49:57;8.60;99.90
3921;DHT22;1975;49.356;6.816;2023-04-08T06:52:23;8.60;99.90
3921;DHT22;1975;49.356;6.816;2023-04-08T06:54:49;8.50;99.90
3921;DHT22;1975;49.356;6.816;2023-04-08T06:57:15;8.60;99.90
3921;DHT22;1975;49.356;6.816;2023-04-08T06:59:40;8.50;99.90
3921;DHT22;1975;49.356;6.816;2023-04-08T07:02:06;8.60;99.90
3921;DHT22;1975;49.356;6.816;2023-04-08T07:04:31;8.60;99.90
3921;DHT22;1975;49.356;6.816;2023-04-08T07:06:57;8.60;99.90
3921;DHT22;1975;49.356;6.816;2023-04-08T07:09:22;8.60;99.90
3921;DHT22;1975;49.356;6.816;2023-04-08T07:11:48;8.60;99.90
3921;DHT22;1975;49.356;6.816;2023-04-08T07:14:13;8.60;99.90
3921;DHT22;1975;49.356;6.816;2023-04-08T07:16:39;8.60;99.90
3921;DHT22;1975;49.356;6.816;2023-04-08T07:19:04;8.60;99.90
3921;DHT22;1975;49.356;6.816;2023-04-08T07:21:30;8.60;99.90
3921;DHT22;1975;49.356;6.816;2023-04-08T07:23:56;8.60;99.90
3921;DHT22;1975;49.356;6.816;2023-04-08T07:26:21;8.60;99.90
3921;DHT22;1975;49.356;6.816;2023-04-08T07:28:46;8.60;99.90
3921;DHT22;1975;49.356;6.816;2023-04-08T07:31:15;8.60;99.90
3921;DHT22;1975;49.356;6.816;2023-04-08T07:33:40;8.60;99.90
3921;DHT22;1975;49.356;6.816;2023-04-08T07:36:07;8.60;99.90
3921;DHT22;1975;49.356;6.816;2023-04-08T07:38:33;8.70;99.90
3921;DHT22;1975;49.356;6.816;2023-04-08T07:40:58;8.70;99.90
3921;DHT22;1975;49.356;6.816;2023-04-08T07:43:24;8.70;99.90
3921;DHT22;1975;49.356;6.816;2023-04-08T07:45:50;8.70;99.90
3921;DHT22;1975;49.356;6.816;2023-04-08T07:48:15;8.70;99.90
3921;DHT22;1975;49.356;6.816;2023-04-08T07:50:41;8.70;99.90
3921;DHT22;1975;49.356;6.816;2023-04-08T07:53:06;8.70;99.90
3921;DHT22;1975;49.356;6.816;2023-04-08T07:55:33;8.70;99.90
3921;DHT22;1975;49.356;6.816;2023-04-08T07:57:59;8.70;99.90
3921;DHT22;1975;49.356;6.816;2023-04-08T08:00:24;8.80;99.90
3921;DHT22;1975;49.356;6.816;2023-04-08T08:02:50;8.80;99.90
3921;DHT22;1975;49.356;6.816;2023-04-08T08:05:15;8.80;99.90
3921;DHT22;1975;49.356;6.816;2023-04-08T08:07:41;8.80;99.90
3921;DHT22;1975;49.356;6.816;2023-04-08T08:10:07;8.80;99.90
3921;DHT22;1975;49.356;6.816;2023-04-08T08:12:32;8.80;99.90
3921;DHT22;1975;49.356;6.816;2023-04-08T08:14:58;8.80;99.90
3921;DHT22;1975;49.356;6.816;2023-04-08T08:17:24;8.80;99.90
3921;DHT22;1975;49.356;6.816;2023-04-08T08:19:50;8.80;99.90
3921;DHT22;1975;49.356;6.816;2023-04-08T08:22:15;8.90;99.90
3921;DHT22;1975;49.356;6.816;2023-04-08T08:24:41;8.90;99.90
3921;DHT22;1975;49.356;6.816;2023-04-08T08:27:09;8.90;99.90
3921;DHT22;1975;49.356;6.816;2023-04-08T08:29:34;8.90;99.90
3921;DHT22;1975;49.356;6.816;2023-04-08T08:32:01;8.90;99.90
3921;DHT22;1975;49.356;6.816;2023-04-08T08:34:28;8.90;99.90
3921;DHT22;1975;49.356;6.816;2023-04-08T08:36:53;8.90;99.90
3921;DHT22;1975;49.356;6.816;2023-04-08T08:39:18;8.90;99.90
3921;DHT22;1975;49.356;6.816;2023-04-08T08:41:44;8.90;99.90
3921;DHT22;1975;49.356;6.816;2023-04-08T08:44:10;8.90;99.90
3921;DHT22;1975;49.356;6.816;2023-04-08T08:46:36;9.00;99.90
3921;DHT22;1975;49.356;6.816;2023-04-08T08:49:02;8.90;99.90
3921;DHT22;1975;49.356;6.816;2023-04-08T08:51:28;9.00;99.90
3921;DHT22;1975;49.356;6.816;2023-04-08T08:53:54;9.00;99.90
3921;DHT22;1975;49.356;6.816;2023-04-08T08:56:19;9.00;99.90
3921;DHT22;1975;49.356;6.816;2023-04-08T08:58:46;9.00;99.90
3921;DHT22;1975;49.356;6.816;2023-04-08T09:01:30;9.10;99.90
3921;DHT22;1975;49.356;6.816;2023-04-08T09:04:15;9.10;99.90
3921;DHT22;1975;49.356;6.816;2023-04-08T09:06:43;9.10;99.90
3921;DHT22;1975;49.356;6.816;2023-04-08T09:09:08;9.10;99.90
3921;DHT22;1975;49.356;6.816;2023-04-08T09:11:38;9.10;99.90
3921;DHT22;1975;49.356;6.816;2023-04-08T09:14:04;9.20;99.90
3921;DHT22;1975;49.356;6.816;2023-04-08T09:16:31;9.10;99.90
3921;DHT22;1975;49.356;6.816;2023-04-08T09:19:07;9.20;99.90
3921;DHT22;1975;49.356;6.816;2023-04-08T09:21:32;9.20;99.90
3921;DHT22;1975;49.356;6.816;2023-04-08T09:23:59;9.20;99.90
3921;DHT22;1975;49.356;6.816;2023-04-08T09:26:24;9.20;99.90
3921;DHT22;1975;49.356;6.816;2023-04-08T09:28:58;9.20;99.90
3921;DHT22;1975;49.356;6.816;2023-04-08T09:31:24;9.20;99.90
3921;DHT22;1975;49.356;6.816;2023-04-08T09:33:53;9.20;99.90
3921;DHT22;1975;49.356;6.816;2023-04-08T09:36:19;9.30;99.90
3921;DHT22;1975;49.356;6.816;2023-04-08T09:38:44;9.30;99.90
3921;DHT22;1975;49.356;6.816;2023-04-08T09:41:14;9.30;99.90
3921;DHT22;1975;49.356;6.816;2023-04-08T09:43:45;9.30;99.90
3921;DHT22;1975;49.356;6.816;2023-04-08T09:46:13;9.30;99.90
3921;DHT22;1975;49.356;6.816;2023-04-08T09:48:49;9.30;99.90
3921;DHT22;1975;49.356;6.816;2023-04-08T09:51:15;9.40;99.90
3921;DHT22;1975;49.356;6.816;2023-04-08T09:53:47;9.40;99.90
3921;DHT22;1975;49.356;6.816;2023-04-08T09:56:14;9.40;99.90
3921;DHT22;1975;49.356;6.816;2023-04-08T09:58:44;9.40;99.90
3921;DHT22;1975;49.356;6.816;2023-04-08T10:01:15;9.40;99.90
3921;DHT22;1975;49.356;6.816;2023-04-08T10:03:48;9.40;99.90
3921;DHT22;1975;49.356;6.816;2023-04-08T10:06:15;9.40;99.90
3921;DHT22;1975;49.356;6.816;2023-04-08T10:08:41;9.50;99.90
3921;DHT22;1975;49.356;6.816;2023-04-08T10:11:07;9.50;99.90
3921;DHT22;1975;49.356;6.816;2023-04-08T10:13:32;9.50;99.90
3921;DHT22;1975;49.356;6.816;2023-04-08T10:16:17;9.50;99.90
3921;DHT22;1975;49.356;6.816;2023-04-08T10:18:43;9.50;99.90
3921;DHT22;1975;49.356;6.816;2023-04-08T10:23:54;9.60;99.90
3921;DHT22;1975;49.356;6.816;2023-04-08T10:26:29;9.60;99.90
3921;DHT22;1975;49.356;6.816;2023-04-08T10:28:54;9.60;99.90
3921;DHT22;1975;49.356;6.816;2023-04-08T10:31:20;9.60;99.90
3921;DHT22;1975;49.356;6.816;2023-04-08T10:33:46;9.60;99.90
3921;DHT22;1975;49.356;6.816;2023-04-08T10:36:12;9.60;99.90
3921;DHT22;1975;49.356;6.816;2023-04-08T10:38:37;9.60;99.90
3921;DHT22;1975;49.356;6.816;2023-04-08T10:41:03;9.70;99.90
3921;DHT22;1975;49.356;6.816;2023-04-08T10:43:32;9.70;99.90
3921;DHT22;1975;49.356;6.816;2023-04-08T10:45:58;9.70;99.90
3921;DHT22;1975;49.356;6.816;2023-04-08T10:48:24;9.70;99.90
3921;DHT22;1975;49.356;6.816;2023-04-08T10:50:53;9.70;99.90
3921;DHT22;1975;49.356;6.816;2023-04-08T10:53:29;9.70;99.90
3921;DHT22;1975;49.356;6.816;2023-04-08T10:56:07;9.70;99.90
3921;DHT22;1975;49.356;6.816;2023-04-08T10:58:33;9.80;99.90
3921;DHT22;1975;49.356;6.816;2023-04-08T11:01:05;9.80;99.90
3921;DHT22;1975;49.356;6.816;2023-04-08T11:03:32;9.80;99.90
3921;DHT22;1975;49.356;6.816;2023-04-08T11:05:58;9.80;99.90
3921;DHT22;1975;49.356;6.816;2023-04-08T11:08:30;9.80;99.90
3921;DHT22;1975;49.356;6.816;2023-04-08T11:10:56;9.80;99.90
3921;DHT22;1975;49.356;6.816;2023-04-08T11:13:22;9.80;99.90
3921;DHT22;1975;49.356;6.816;2023-04-08T11:15:48;9.80;99.90
3921;DHT22;1975;49.356;6.816;2023-04-08T11:18:14;9.90;99.90
3921;DHT22;1975;49.356;6.816;2023-04-08T11:20:40;9.80;99.90
3921;DHT22;1975;49.356;6.816;2023-04-08T11:23:12;9.90;99.90
3921;DHT22;1975;49.356;6.816;2023-04-08T11:25:38;9.90;99.90
3921;DHT22;1975;49.356;6.816;2023-04-08T11:28:04;9.90;99.90
3921;DHT22;1975;49.356;6.816;2023-04-08T11:30:30;9.90;99.90
3921;DHT22;1975;49.356;6.816;2023-04-08T11:32:55;9.90;99.90
3921;DHT22;1975;49.356;6.816;2023-04-08T11:35:22;9.90;99.90
3921;DHT22;1975;49.356;6.816;2023-04-08T11:37:47;10.00;99.90
3921;DHT22;1975;49.356;6.816;2023-04-08T11:40:18;10.00;99.90
3921;DHT22;1975;49.356;6.816;2023-04-08T11:42:44;10.00;99.90
3921;DHT22;1975;49.356;6.816;2023-04-08T11:45:10;10.00;99.90
3921;DHT22;1975;49.356;6.816;2023-04-08T11:47:36;10.00;99.90
3921;DHT22;1975;49.356;6.816;2023-04-08T11:50:02;10.00;99.90
3921;DHT22;1975;49.356;6.816;2023-04-08T11:55:05;10.10;99.90
3921;DHT22;1975;49.356;6.816;2023-04-08T11:57:31;10.10;99.90
3921;DHT22;1975;49.356;6.816;2023-04-08T11:59:57;10.10;99.90
3921;DHT22;1975;49.356;6.816;2023-04-08T12:02:22;10.10;99.90
3921;DHT22;1975;49.356;6.816;2023-04-08T12:04:48;10.10;99.90
3921;DHT22;1975;49.356;6.816;2023-04-08T12:07:13;10.10;99.90
3921;DHT22;1975;49.356;6.816;2023-04-08T12:09:39;10.10;99.90
3921;DHT22;1975;49.356;6.816;2023-04-08T12:12:04;10.10;99.90
3921;DHT22;1975;49.356;6.816;2023-04-08T12:14:30;10.20;99.90
3921;DHT22;1975;49.356;6.816;2023-04-08T12:16:56;10.20;99.90
3921;DHT22;1975;49.356;6.816;2023-04-08T12:19:22;10.20;99.90
3921;DHT22;1975;49.356;6.816;2023-04-08T12:21:47;10.20;99.90
3921;DHT22;1975;49.356;6.816;2023-04-08T12:24:13;10.20;99.90
3921;DHT22;1975;49.356;6.816;2023-04-08T12:26:38;10.20;99.90
3921;DHT22;1975;49.356;6.816;2023-04-08T12:29:04;10.20;99.90
3921;DHT22;1975;49.356;6.816;2023-04-08T12:31:29;10.20;99.90
3921;DHT22;1975;49.356;6.816;2023-04-08T12:33:55;10.20;99.90
3921;DHT22;1975;49.356;6.816;2023-04-08T12:36:20;10.20;99.90
3921;DHT22;1975;49.356;6.816;2023-04-08T12:38:45;10.30;99.90
3921;DHT22;1975;49.356;6.816;2023-04-08T12:41:11;10.30;99.90
3921;DHT22;1975;49.356;6.816;2023-04-08T12:43:36;10.30;99.90
3921;DHT22;1975;49.356;6.816;2023-04-08T12:46:03;10.30;99.90
3921;DHT22;1975;49.356;6.816;2023-04-08T12:48:28;10.30;99.90
3921;DHT22;1975;49.356;6.816;2023-04-08T12:50:54;10.30;99.90
3921;DHT22;1975;49.356;6.816;2023-04-08T12:53:20;10.30;99.90
3921;DHT22;1975;49.356;6.816;2023-04-08T12:55:45;10.40;99.90
3921;DHT22;1975;49.356;6.816;2023-04-08T12:58:11;10.30;99.90
3921;DHT22;1975;49.356;6.816;2023-04-08T13:00:36;10.40;99.90
3921;DHT22;1975;49.356;6.816;2023-04-08T13:03:02;10.40;99.90
3921;DHT22;1975;49.356;6.816;2023-04-08T13:05:28;10.40;99.90
3921;DHT22;1975;49.356;6.816;2023-04-08T13:07:53;10.40;99.90
3921;DHT22;1975;49.356;6.816;2023-04-08T13:10:19;10.40;99.90
3921;DHT22;1975;49.356;6.816;2023-04-08T13:12:44;10.40;99.90
3921;DHT22;1975;49.356;6.816;2023-04-08T13:15:10;10.40;99.90
3921;DHT22;1975;49.356;6.816;2023-04-08T13:17:35;10.50;99.90
3921;DHT22;1975;49.356;6.816;2023-04-08T13:20:01;10.50;99.90
3921;DHT22;1975;49.356;6.816;2023-04-08T13:22:26;10.50;99.90
3921;DHT22;1975;49.356;6.816;2023-04-08T13:24:52;10.50;99.90
3921;DHT22;1975;49.356;6.816;2023-04-08T13:27:17;10.50;99.90
3921;DHT22;1975;49.356;6.816;2023-04-08T13:29:43;10.50;99.90
3921;DHT22;1975;49.356;6.816;2023-04-08T13:32:08;10.50;99.90
3921;DHT22;1975;49.356;6.816;2023-04-08T13:34:34;10.50;99.90
3921;DHT22;1975;49.356;6.816;2023-04-08T13:36:59;10.60;99.90
3921;DHT22;1975;49.356;6.816;2023-04-08T13:39:25;10.60;99.90
3921;DHT22;1975;49.356;6.816;2023-04-08T13:41:50;10.60;99.90
3921;DHT22;1975;49.356;6.816;2023-04-08T13:44:16;10.60;99.90
3921;DHT22;1975;49.356;6.816;2023-04-08T13:46:42;10.60;99.90
3921;DHT22;1975;49.356;6.816;2023-04-08T13:49:08;10.60;99.90
3921;DHT22;1975;49.356;6.816;2023-04-08T13:51:33;10.60;99.90
3921;DHT22;1975;49.356;6.816;2023-04-08T13:53:59;10.60;99.90
3921;DHT22;1975;49.356;6.816;2023-04-08T13:56:25;10.60;99.90
3921;DHT22;1975;49.356;6.816;2023-04-08T13:58:50;10.60;99.90
3921;DHT22;1975;49.356;6.816;2023-04-08T14:01:16;10.60;99.90
3921;DHT22;1975;49.356;6.816;2023-04-08T14:03:41;10.60;99.90
3921;DHT22;1975;49.356;6.816;2023-04-08T14:06:07;10.60;99.90
3921;DHT22;1975;49.356;6.816;2023-04-08T14:08:33;10.90;99.90
3921;DHT22;1975;49.356;6.816;2023-04-08T14:10:58;10.90;99.90
3921;DHT22;1975;49.356;6.816;2023-04-08T14:13:24;10.90;99.90
3921;DHT22;1975;49.356;6.816;2023-04-08T14:15:49;10.90;99.90
3921;DHT22;1975;49.356;6.816;2023-04-08T14:18:16;10.90;99.90
3921;DHT22;1975;49.356;6.816;2023-04-08T14:20:42;10.90;99.90
3921;DHT22;1975;49.356;6.816;2023-04-08T14:23:07;10.90;99.90
3921;DHT22;1975;49.356;6.816;2023-04-08T14:25:33;10.90;99.90
3921;DHT22;1975;49.356;6.816;2023-04-08T14:27:58;10.90;99.90
3921;DHT22;1975;49.356;6.816;2023-04-08T14:30:24;11.00;99.90
3921;DHT22;1975;49.356;6.816;2023-04-08T14:32:51;11.30;99.90
3921;DHT22;1975;49.356;6.816;2023-04-08T14:35:17;11.60;99.90
3921;DHT22;1975;49.356;6.816;2023-04-08T14:37:42;11.80;99.90
3921;DHT22;1975;49.356;6.816;2023-04-08T14:40:08;11.80;99.90
3921;DHT22;1975;49.356;6.816;2023-04-08T14:42:34;11.80;99.90
3921;DHT22;1975;49.356;6.816;2023-04-08T14:44:59;11.90;99.90
3921;DHT22;1975;49.356;6.816;2023-04-08T14:47:25;11.90;99.90
3921;DHT22;1975;49.356;6.816;2023-04-08T14:49:50;11.90;99.90
3921;DHT22;1975;49.356;6.816;2023-04-08T14:52:16;12.10;99.90
3921;DHT22;1975;49.356;6.816;2023-04-08T14:54:41;12.10;99.90
3921;DHT22;1975;49.356;6.816;2023-04-08T14:57:09;12.10;99.90
3921;DHT22;1975;49.356;6.816;2023-04-08T14:59:34;12.10;99.90
3921;DHT22;1975;49.356;6.816;2023-04-08T15:02:00;12.10;99.90
3921;DHT22;1975;49.356;6.816;2023-04-08T15:04:26;12.00;99.90
3921;DHT22;1975;49.356;6.816;2023-04-08T15:06:51;12.20;99.90
3921;DHT22;1975;49.356;6.816;2023-04-08T15:09:17;12.30;99.90
3921;DHT22;1975;49.356;6.816;2023-04-08T15:11:42;12.20;99.90
3921;DHT22;1975;49.356;6.816;2023-04-08T15:14:08;12.10;99.90
3921;DHT22;1975;49.356;6.816;2023-04-08T15:16:33;12.10;99.90
3921;DHT22;1975;49.356;6.816;2023-04-08T15:18:59;12.10;99.90
3921;DHT22;1975;49.356;6.816;2023-04-08T15:21:25;12.30;99.90
3921;DHT22;1975;49.356;6.816;2023-04-08T15:23:51;12.50;99.90
3921;DHT22;1975;49.356;6.816;2023-04-08T15:26:16;12.70;99.90
3921;DHT22;1975;49.356;6.816;2023-04-08T15:28:42;12.70;99.90
3921;DHT22;1975;49.356;6.816;2023-04-08T15:31:07;12.70;99.90
3921;DHT22;1975;49.356;6.816;2023-04-08T15:33:33;12.70;99.90
3921;DHT22;1975;49.356;6.816;2023-04-08T15:35:59;12.60;99.90
3921;DHT22;1975;49.356;6.816;2023-04-08T15:38:28;12.50;99.90
3921;DHT22;1975;49.356;6.816;2023-04-08T15:40:53;12.40;99.90
3921;DHT22;1975;49.356;6.816;2023-04-08T15:43:18;12.40;99.90
3921;DHT22;1975;49.356;6.816;2023-04-08T15:45:44;12.30;99.90
3921;DHT22;1975;49.356;6.816;2023-04-08T15:48:10;12.30;99.90
3921;DHT22;1975;49.356;6.816;2023-04-08T15:50:36;12.30;99.90
3921;DHT22;1975;49.356;6.816;2023-04-08T15:53:02;12.30;99.90
3921;DHT22;1975;49.356;6.816;2023-04-08T15:55:27;12.30;99.90
3921;DHT22;1975;49.356;6.816;2023-04-08T15:57:53;12.30;99.90
3921;DHT22;1975;49.356;6.816;2023-04-08T16:00:21;12.40;99.90
3921;DHT22;1975;49.356;6.816;2023-04-08T16:02:47;12.40;99.90
3921;DHT22;1975;49.356;6.816;2023-04-08T16:05:13;12.40;99.90
3921;DHT22;1975;49.356;6.816;2023-04-08T16:07:38;12.40;99.90
3921;DHT22;1975;49.356;6.816;2023-04-08T16:10:04;12.40;99.90
3921;DHT22;1975;49.356;6.816;2023-04-08T16:12:29;12.30;99.90
3921;DHT22;1975;49.356;6.816;2023-04-08T16:14:55;12.20;99.90
3921;DHT22;1975;49.356;6.816;2023-04-08T16:17:21;12.20;99.90